sensor_id;sensor_type;location;lat;lon;timestamp;P1;durP1;ratioP1;P2;durP2;ratioP2
12129;SDS011;6128;59.340;18.040;2023-09-07T00:01:56;3.13;;;1.07;;
12129;SDS011;6128;59.340;18.040;2023-09-07T00:04:23;3.37;;;1.00;;
12129;SDS011;6128;59.340;18.040;2023-09-07T00:06:50;1.43;;;1.07;;
12129;SDS011;6128;59.340;18.040;2023-09-07T00:09:17;1.90;;;0.80;;
12129;SDS011;6128;59.340;18.040;2023-09-07T00:11:47;2.97;;;1.20;;
12129;SDS011;6128;59.340;18.040;2023-09-07T00:14:15;2.87;;;1.10;;
12129;SDS011;6128;59.340;18.040;2023-09-07T00:16:42;1.23;;;1.10;;
12129;SDS011;6128;59.340;18.040;2023-09-07T00:19:09;2.27;;;1.10;;
12129;SDS011;6128;59.340;18.040;2023-09-07T00:21:36;3.20;;;1.23;;
12129;SDS011;6128;59.340;18.040;2023-09-07T00:24:04;2.77;;;1.37;;
12129;SDS011;6128;59.340;18.040;2023-09-07T00:26:31;3.40;;;0.97;;
12129;SDS011;6128;59.340;18.040;2023-09-07T00:28:59;2.60;;;1.23;;
12129;SDS011;6128;59.340;18.040;2023-09-07T00:31:27;4.43;;;1.00;;
12129;SDS011;6128;59.340;18.040;2023-09-07T00:33:54;3.00;;;1.00;;
12129;SDS011;6128;59.340;18.040;2023-09-07T00:36:21;2.63;;;1.00;;
12129;SDS011;6128;59.340;18.040;2023-09-07T00:38:48;3.20;;;0.93;;
12129;SDS011;6128;59.340;18.040;2023-09-07T00:41:15;1.93;;;0.90;;
12129;SDS011;6128;59.340;18.040;2023-09-07T00:43:42;2.93;;;1.10;;
12129;SDS011;6128;59.340;18.040;2023-09-07T00:46:09;6.67;;;1.30;;
12129;SDS011;6128;59.340;18.040;2023-09-07T00:48:39;2.13;;;0.97;;
12129;SDS011;6128;59.340;18.040;2023-09-07T00:51:06;4.70;;;1.00;;
12129;SDS011;6128;59.340;18.040;2023-09-07T00:53:33;2.37;;;0.80;;
12129;SDS011;6128;59.340;18.040;2023-09-07T00:56:00;2.93;;;1.30;;
12129;SDS011;6128;59.340;18.040;2023-09-07T00:58:29;2.20;;;1.20;;
12129;SDS011;6128;59.340;18.040;2023-09-07T01:00:56;2.23;;;0.83;;
12129;SDS011;6128;59.340;18.040;2023-09-07T01:03:23;1.87;;;0.90;;
12129;SDS011;6128;59.340;18.040;2023-09-07T01:05:52;2.43;;;0.90;;
12129;SDS011;6128;59.340;18.040;2023-09-07T01:08:26;2.10;;;0.93;;
12129;SDS011;6128;59.340;18.040;2023-09-07T01:10:58;1.67;;;1.00;;
12129;SDS011;6128;59.340;18.040;2023-09-07T01:13:26;3.90;;;0.93;;
12129;SDS011;6128;59.340;18.040;2023-09-07T01:15:53;1.57;;;1.03;;
12129;SDS011;6128;59.340;18.040;2023-09-07T01:18:20;1.60;;;1.00;;
12129;SDS011;6128;59.340;18.040;2023-09-07T01:20:48;2.40;;;1.20;;
12129;SDS011;6128;59.340;18.040;2023-09-07T01:23:16;2.67;;;1.40;;
12129;SDS011;6128;59.340;18.040;2023-09-07T01:25:44;3.87;;;1.37;;
12129;SDS011;6128;59.340;18.040;2023-09-07T01:28:12;1.80;;;1.23;;
12129;SDS011;6128;59.340;18.040;2023-09-07T01:30:40;2.57;;;1.07;;
12129;SDS011;6128;59.340;18.040;2023-09-07T01:33:07;2.30;;;1.40;;
12129;SDS011;6128;59.340;18.040;2023-09-07T01:35:34;2.97;;;1.27;;
12129;SDS011;6128;59.340;18.040;2023-09-07T01:38:03;1.37;;;1.20;;
12129;SDS011;6128;59.340;18.040;2023-09-07T01:40:31;2.07;;;1.30;;
12129;SDS011;6128;59.340;18.040;2023-09-07T01:42:58;3.13;;;1.20;;
12129;SDS011;6128;59.340;18.040;2023-09-07T01:45:25;3.47;;;1.70;;
12129;SDS011;6128;59.340;18.040;2023-09-07T01:47:52;3.43;;;1.13;;
12129;SDS011;6128;59.340;18.040;2023-09-07T01:50:19;2.17;;;1.20;;
12129;SDS011;6128;59.340;18.040;2023-09-07T01:52:46;3.23;;;1.50;;
12129;SDS011;6128;59.340;18.040;2023-09-07T01:55:14;2.83;;;1.00;;
12129;SDS011;6128;59.340;18.040;2023-09-07T01:57:43;2.23;;;1.10;;
12129;SDS011;6128;59.340;18.040;2023-09-07T02:00:10;3.53;;;1.40;;
12129;SDS011;6128;59.340;18.040;2023-09-07T02:02:38;2.73;;;1.33;;
12129;SDS011;6128;59.340;18.040;2023-09-07T02:05:05;2.67;;;1.70;;
12129;SDS011;6128;59.340;18.040;2023-09-07T02:07:33;2.83;;;1.60;;
12129;SDS011;6128;59.340;18.040;2023-09-07T02:10:00;2.67;;;1.33;;
12129;SDS011;6128;59.340;18.040;2023-09-07T02:12:28;1.33;;;1.10;;
12129;SDS011;6128;59.340;18.040;2023-09-07T02:14:58;4.13;;;1.17;;
12129;SDS011;6128;59.340;18.040;2023-09-07T02:17:27;2.07;;;1.17;;
12129;SDS011;6128;59.340;18.040;2023-09-07T02:19:55;2.97;;;1.30;;
12129;SDS011;6128;59.340;18.040;2023-09-07T02:22:22;2.60;;;1.17;;
12129;SDS011;6128;59.340;18.040;2023-09-07T02:24:49;3.10;;;1.50;;
12129;SDS011;6128;59.340;18.040;2023-09-07T02:27:16;2.13;;;1.10;;
12129;SDS011;6128;59.340;18.040;2023-09-07T02:29:43;2.27;;;1.23;;
12129;SDS011;6128;59.340;18.040;2023-09-07T02:32:12;1.60;;;0.90;;
12129;SDS011;6128;59.340;18.040;2023-09-07T02:34:39;2.37;;;1.13;;
12129;SDS011;6128;59.340;18.040;2023-09-07T02:37:07;1.20;;;1.00;;
12129;SDS011;6128;59.340;18.040;2023-09-07T02:39:34;4.07;;;1.40;;
12129;SDS011;6128;59.340;18.040;2023-09-07T02:42:02;3.07;;;1.27;;
12129;SDS011;6128;59.340;18.040;2023-09-07T02:44:29;3.10;;;1.10;;
12129;SDS011;6128;59.340;18.040;2023-09-07T02:46:56;2.57;;;1.40;;
12129;SDS011;6128;59.340;18.040;2023-09-07T02:49:24;2.27;;;1.17;;
12129;SDS011;6128;59.340;18.040;2023-09-07T02:51:51;2.43;;;1.43;;
12129;SDS011;6128;59.340;18.040;2023-09-07T02:54:18;1.80;;;1.30;;
12129;SDS011;6128;59.340;18.040;2023-09-07T02:56:45;2.00;;;1.03;;
12129;SDS011;6128;59.340;18.040;2023-09-07T02:59:13;3.17;;;1.30;;
12129;SDS011;6128;59.340;18.040;2023-09-07T03:01:40;3.50;;;1.47;;
12129;SDS011;6128;59.340;18.040;2023-09-07T03:04:07;2.97;;;1.10;;
12129;SDS011;6128;59.340;18.040;2023-09-07T03:06:35;2.97;;;1.37;;
12129;SDS011;6128;59.340;18.040;2023-09-07T03:09:02;2.20;;;1.20;;
12129;SDS011;6128;59.340;18.040;2023-09-07T03:11:33;3.47;;;1.17;;
12129;SDS011;6128;59.340;18.040;2023-09-07T03:14:00;3.03;;;1.20;;
12129;SDS011;6128;59.340;18.040;2023-09-07T03:16:28;3.17;;;1.80;;
12129;SDS011;6128;59.340;18.040;2023-09-07T03:18:55;4.57;;;1.77;;
12129;SDS011;6128;59.340;18.040;2023-09-07T03:21:22;1.23;;;1.13;;
12129;SDS011;6128;59.340;18.040;2023-09-07T03:23:55;3.00;;;1.40;;
12129;SDS011;6128;59.340;18.040;2023-09-07T03:26:23;2.77;;;1.30;;
12129;SDS011;6128;59.340;18.040;2023-09-07T03:28:50;1.97;;;1.50;;
12129;SDS011;6128;59.340;18.040;2023-09-07T03:31:17;3.40;;;1.53;;
12129;SDS011;6128;59.340;18.040;2023-09-07T03:33:44;3.43;;;1.80;;
12129;SDS011;6128;59.340;18.040;2023-09-07T03:36:11;2.00;;;1.33;;
12129;SDS011;6128;59.340;18.040;2023-09-07T03:38:40;2.33;;;1.50;;
12129;SDS011;6128;59.340;18.040;2023-09-07T03:41:08;1.47;;;1.03;;
12129;SDS011;6128;59.340;18.040;2023-09-07T03:43:35;2.77;;;1.63;;
12129;SDS011;6128;59.340;18.040;2023-09-07T03:46:02;3.20;;;1.60;;
12129;SDS011;6128;59.340;18.040;2023-09-07T03:48:29;1.37;;;1.27;;
12129;SDS011;6128;59.340;18.040;2023-09-07T03:50:56;2.40;;;1.60;;
12129;SDS011;6128;59.340;18.040;2023-09-07T03:53:23;3.10;;;1.57;;
12129;SDS011;6128;59.340;18.040;2023-09-07T03:55:50;3.97;;;1.47;;
12129;SDS011;6128;59.340;18.040;2023-09-07T03:58:19;2.87;;;1.70;;
12129;SDS011;6128;59.340;18.040;2023-09-07T04:00:46;4.17;;;1.93;;
12129;SDS011;6128;59.340;18.040;2023-09-07T04:03:13;2.37;;;1.57;;
12129;SDS011;6128;59.340;18.040;2023-09-07T04:05:40;2.97;;;1.57;;
12129;SDS011;6128;59.340;18.040;2023-09-07T04:08:08;3.77;;;1.87;;
12129;SDS011;6128;59.340;18.040;2023-09-07T04:10:36;5.10;;;1.80;;
12129;SDS011;6128;59.340;18.040;2023-09-07T04:13:04;2.87;;;1.63;;
12129;SDS011;6128;59.340;18.040;2023-09-07T04:15:32;3.20;;;1.40;;
12129;SDS011;6128;59.340;18.040;2023-09-07T04:17:59;2.17;;;1.30;;
12129;SDS011;6128;59.340;18.040;2023-09-07T04:20:26;2.37;;;1.40;;
12129;SDS011;6128;59.340;18.040;2023-09-07T04:22:54;3.50;;;1.20;;
12129;SDS011;6128;59.340;18.040;2023-09-07T04:25:21;3.10;;;1.73;;
12129;SDS011;6128;59.340;18.040;2023-09-07T04:27:48;3.43;;;1.50;;
12129;SDS011;6128;59.340;18.040;2023-09-07T04:30:15;4.47;;;1.40;;
12129;SDS011;6128;59.340;18.040;2023-09-07T04:32:44;3.07;;;1.53;;
12129;SDS011;6128;59.340;18.040;2023-09-07T04:35:11;2.53;;;1.70;;
12129;SDS011;6128;59.340;18.040;2023-09-07T04:37:41;2.90;;;2.40;;
12129;SDS011;6128;59.340;18.040;2023-09-07T04:40:09;3.07;;;2.03;;
12129;SDS011;6128;59.340;18.040;2023-09-07T04:42:36;2.57;;;1.73;;
12129;SDS011;6128;59.340;18.040;2023-09-07T04:45:04;3.83;;;1.90;;
12129;SDS011;6128;59.340;18.040;2023-09-07T04:47:31;1.77;;;1.50;;
12129;SDS011;6128;59.340;18.040;2023-09-07T04:50:00;3.20;;;1.70;;
12129;SDS011;6128;59.340;18.040;2023-09-07T04:52:29;2.10;;;1.60;;
12129;SDS011;6128;59.340;18.040;2023-09-07T04:54:56;3.50;;;1.60;;
12129;SDS011;6128;59.340;18.040;2023-09-07T04:57:23;3.40;;;1.40;;
12129;SDS011;6128;59.340;18.040;2023-09-07T04:59:50;2.30;;;1.50;;
12129;SDS011;6128;59.340;18.040;2023-09-07T05:02:17;3.30;;;1.60;;
12129;SDS011;6128;59.340;18.040;2023-09-07T05:04:44;2.53;;;1.50;;
12129;SDS011;6128;59.340;18.040;2023-09-07T05:07:12;1.70;;;1.57;;
12129;SDS011;6128;59.340;18.040;2023-09-07T05:09:39;3.40;;;1.73;;
12129;SDS011;6128;59.340;18.040;2023-09-07T05:12:06;2.43;;;1.80;;
12129;SDS011;6128;59.340;18.040;2023-09-07T05:14:34;5.50;;;2.33;;
12129;SDS011;6128;59.340;18.040;2023-09-07T05:17:01;3.00;;;2.10;;
12129;SDS011;6128;59.340;18.040;2023-09-07T05:19:28;2.27;;;1.90;;
12129;SDS011;6128;59.340;18.040;2023-09-07T05:21:55;3.63;;;2.40;;
12129;SDS011;6128;59.340;18.040;2023-09-07T05:24:24;7.40;;;3.07;;
12129;SDS011;6128;59.340;18.040;2023-09-07T05:26:51;3.37;;;2.67;;
12129;SDS011;6128;59.340;18.040;2023-09-07T05:29:18;5.57;;;3.03;;
12129;SDS011;6128;59.340;18.040;2023-09-07T05:31:46;5.17;;;2.80;;
12129;SDS011;6128;59.340;18.040;2023-09-07T05:34:13;3.40;;;2.83;;
12129;SDS011;6128;59.340;18.040;2023-09-07T05:36:41;6.87;;;3.07;;
12129;SDS011;6128;59.340;18.040;2023-09-07T05:39:08;3.60;;;2.50;;
12129;SDS011;6128;59.340;18.040;2023-09-07T05:41:36;5.20;;;3.07;;
12129;SDS011;6128;59.340;18.040;2023-09-07T05:44:03;3.43;;;2.77;;
12129;SDS011;6128;59.340;18.040;2023-09-07T05:46:33;2.73;;;2.47;;
12129;SDS011;6128;59.340;18.040;2023-09-07T05:49:00;5.00;;;2.80;;
12129;SDS011;6128;59.340;18.040;2023-09-07T05:51:27;5.17;;;2.50;;
12129;SDS011;6128;59.340;18.040;2023-09-07T05:53:54;6.83;;;3.07;;
12129;SDS011;6128;59.340;18.040;2023-09-07T05:56:21;6.03;;;3.30;;
12129;SDS011;6128;59.340;18.040;2023-09-07T05:58:50;6.23;;;3.97;;
12129;SDS011;6128;59.340;18.040;2023-09-07T06:01:17;5.57;;;4.20;;
12129;SDS011;6128;59.340;18.040;2023-09-07T06:03:44;7.70;;;4.33;;
12129;SDS011;6128;59.340;18.040;2023-09-07T06:06:11;8.10;;;4.13;;
12129;SDS011;6128;59.340;18.040;2023-09-07T06:08:38;6.10;;;4.00;;
12129;SDS011;6128;59.340;18.040;2023-09-07T06:11:07;4.90;;;3.60;;
12129;SDS011;6128;59.340;18.040;2023-09-07T06:13:34;4.63;;;3.40;;
12129;SDS011;6128;59.340;18.040;2023-09-07T06:16:03;4.37;;;2.77;;
12129;SDS011;6128;59.340;18.040;2023-09-07T06:18:30;7.07;;;3.20;;
12129;SDS011;6128;59.340;18.040;2023-09-07T06:20:57;5.20;;;2.83;;
12129;SDS011;6128;59.340;18.040;2023-09-07T06:23:24;5.00;;;2.57;;
12129;SDS011;6128;59.340;18.040;2023-09-07T06:25:51;5.10;;;2.60;;
12129;SDS011;6128;59.340;18.040;2023-09-07T06:28:18;2.40;;;2.07;;
12129;SDS011;6128;59.340;18.040;2023-09-07T06:30:45;2.60;;;2.00;;
12129;SDS011;6128;59.340;18.040;2023-09-07T06:33:14;4.93;;;2.37;;
12129;SDS011;6128;59.340;18.040;2023-09-07T06:35:42;3.40;;;1.70;;
12129;SDS011;6128;59.340;18.040;2023-09-07T06:38:09;1.77;;;1.43;;
12129;SDS011;6128;59.340;18.040;2023-09-07T06:40:36;3.90;;;1.63;;
12129;SDS011;6128;59.340;18.040;2023-09-07T06:43:03;3.00;;;1.20;;
12129;SDS011;6128;59.340;18.040;2023-09-07T06:45:33;2.97;;;0.97;;
12129;SDS011;6128;59.340;18.040;2023-09-07T06:48:00;0.93;;;0.70;;
12129;SDS011;6128;59.340;18.040;2023-09-07T06:50:29;1.37;;;0.83;;
12129;SDS011;6128;59.340;18.040;2023-09-07T06:52:56;2.27;;;0.70;;
12129;SDS011;6128;59.340;18.040;2023-09-07T06:55:23;1.53;;;0.63;;
12129;SDS011;6128;59.340;18.040;2023-09-07T06:57:50;1.55;;;0.60;;
12129;SDS011;6128;59.340;18.040;2023-09-07T07:00:20;2.42;;;0.80;;
12129;SDS011;6128;59.340;18.040;2023-09-07T07:02:48;1.23;;;0.68;;
12129;SDS011;6128;59.340;18.040;2023-09-07T07:05:15;2.22;;;0.70;;
12129;SDS011;6128;59.340;18.040;2023-09-07T07:07:44;3.22;;;0.70;;
12129;SDS011;6128;59.340;18.040;2023-09-07T07:10:11;1.42;;;0.77;;
12129;SDS011;6128;59.340;18.040;2023-09-07T07:12:38;1.25;;;0.60;;
12129;SDS011;6128;59.340;18.040;2023-09-07T07:15:05;1.48;;;0.57;;
12129;SDS011;6128;59.340;18.040;2023-09-07T07:17:33;1.00;;;0.60;;
12129;SDS011;6128;59.340;18.040;2023-09-07T07:20:01;1.77;;;0.85;;
12129;SDS011;6128;59.340;18.040;2023-09-07T07:22:28;4.78;;;1.02;;
12129;SDS011;6128;59.340;18.040;2023-09-07T07:24:56;1.38;;;0.63;;
12129;SDS011;6128;59.340;18.040;2023-09-07T07:27:24;1.23;;;0.73;;
12129;SDS011;6128;59.340;18.040;2023-09-07T07:29:51;1.50;;;0.50;;
12129;SDS011;6128;59.340;18.040;2023-09-07T07:32:18;1.85;;;0.60;;
12129;SDS011;6128;59.340;18.040;2023-09-07T07:34:45;2.13;;;0.43;;
12129;SDS011;6128;59.340;18.040;2023-09-07T07:37:12;1.92;;;0.60;;
12129;SDS011;6128;59.340;18.040;2023-09-07T07:39:39;1.30;;;0.80;;
12129;SDS011;6128;59.340;18.040;2023-09-07T07:42:08;2.03;;;0.70;;
12129;SDS011;6128;59.340;18.040;2023-09-07T07:44:35;1.63;;;0.90;;
12129;SDS011;6128;59.340;18.040;2023-09-07T07:47:02;1.25;;;0.55;;
12129;SDS011;6128;59.340;18.040;2023-09-07T07:49:29;1.63;;;0.82;;
12129;SDS011;6128;59.340;18.040;2023-09-07T07:51:57;1.83;;;0.75;;
12129;SDS011;6128;59.340;18.040;2023-09-07T07:54:24;1.48;;;0.70;;
12129;SDS011;6128;59.340;18.040;2023-09-07T07:56:53;0.70;;;0.40;;
12129;SDS011;6128;59.340;18.040;2023-09-07T07:59:22;1.38;;;0.50;;
12129;SDS011;6128;59.340;18.040;2023-09-07T08:01:49;1.73;;;0.70;;
12129;SDS011;6128;59.340;18.040;2023-09-07T08:04:16;1.02;;;0.70;;
12129;SDS011;6128;59.340;18.040;2023-09-07T08:06:43;1.98;;;1.02;;
12129;SDS011;6128;59.340;18.040;2023-09-07T08:09:10;0.93;;;0.80;;
12129;SDS011;6128;59.340;18.040;2023-09-07T08:11:38;0.90;;;0.65;;
12129;SDS011;6128;59.340;18.040;2023-09-07T08:14:05;2.10;;;0.80;;
12129;SDS011;6128;59.340;18.040;2023-09-07T08:16:34;1.15;;;0.70;;
12129;SDS011;6128;59.340;18.040;2023-09-07T08:19:02;1.35;;;0.90;;
12129;SDS011;6128;59.340;18.040;2023-09-07T08:21:29;4.00;;;0.80;;
12129;SDS011;6128;59.340;18.040;2023-09-07T08:23:56;2.50;;;0.90;;
12129;SDS011;6128;59.340;18.040;2023-09-07T08:26:23;3.55;;;2.88;;
12129;SDS011;6128;59.340;18.040;2023-09-07T08:28:50;3.05;;;1.25;;
12129;SDS011;6128;59.340;18.040;2023-09-07T08:31:17;2.50;;;0.95;;
12129;SDS011;6128;59.340;18.040;2023-09-07T08:33:48;1.23;;;0.95;;
12129;SDS011;6128;59.340;18.040;2023-09-07T08:36:16;2.13;;;1.00;;
12129;SDS011;6128;59.340;18.040;2023-09-07T08:38:43;3.00;;;0.98;;
12129;SDS011;6128;59.340;18.040;2023-09-07T08:41:10;3.58;;;0.93;;
12129;SDS011;6128;59.340;18.040;2023-09-07T08:43:39;1.85;;;0.60;;
12129;SDS011;6128;59.340;18.040;2023-09-07T08:46:13;2.65;;;0.80;;
12129;SDS011;6128;59.340;18.040;2023-09-07T08:48:42;2.63;;;0.80;;
12129;SDS011;6128;59.340;18.040;2023-09-07T08:51:12;1.08;;;0.80;;
12129;SDS011;6128;59.340;18.040;2023-09-07T08:53:41;1.48;;;0.93;;
12129;SDS011;6128;59.340;18.040;2023-09-07T08:56:11;2.65;;;1.00;;
12129;SDS011;6128;59.340;18.040;2023-09-07T08:58:39;1.00;;;0.80;;
12129;SDS011;6128;59.340;18.040;2023-09-07T09:01:06;1.58;;;0.88;;
12129;SDS011;6128;59.340;18.040;2023-09-07T09:03:34;2.30;;;1.08;;
12129;SDS011;6128;59.340;18.040;2023-09-07T09:06:02;2.13;;;1.00;;
12129;SDS011;6128;59.340;18.040;2023-09-07T09:08:42;1.60;;;0.70;;
12129;SDS011;6128;59.340;18.040;2023-09-07T09:11:09;0.85;;;0.60;;
12129;SDS011;6128;59.340;18.040;2023-09-07T09:13:36;1.20;;;0.60;;
12129;SDS011;6128;59.340;18.040;2023-09-07T09:16:05;2.25;;;0.60;;
12129;SDS011;6128;59.340;18.040;2023-09-07T09:18:32;2.05;;;0.77;;
12129;SDS011;6128;59.340;18.040;2023-09-07T09:21:00;1.50;;;0.63;;
12129;SDS011;6128;59.340;18.040;2023-09-07T09:23:30;1.38;;;0.75;;
12129;SDS011;6128;59.340;18.040;2023-09-07T09:26:00;0.73;;;0.70;;
12129;SDS011;6128;59.340;18.040;2023-09-07T09:28:28;2.10;;;0.90;;
12129;SDS011;6128;59.340;18.040;2023-09-07T09:30:58;0.93;;;0.60;;
12129;SDS011;6128;59.340;18.040;2023-09-07T09:33:25;2.22;;;0.93;;
12129;SDS011;6128;59.340;18.040;2023-09-07T09:35:53;1.13;;;0.77;;
12129;SDS011;6128;59.340;18.040;2023-09-07T09:38:21;1.65;;;1.10;;
12129;SDS011;6128;59.340;18.040;2023-09-07T09:40:48;2.22;;;1.00;;
12129;SDS011;6128;59.340;18.040;2023-09-07T09:43:20;1.15;;;0.73;;
12129;SDS011;6128;59.340;18.040;2023-09-07T09:45:48;1.25;;;0.70;;
12129;SDS011;6128;59.340;18.040;2023-09-07T09:48:17;1.73;;;1.00;;
12129;SDS011;6128;59.340;18.040;2023-09-07T09:50:46;1.90;;;1.00;;
12129;SDS011;6128;59.340;18.040;2023-09-07T09:53:14;1.20;;;0.80;;
12129;SDS011;6128;59.340;18.040;2023-09-07T09:55:44;4.10;;;1.15;;
12129;SDS011;6128;59.340;18.040;2023-09-07T09:58:12;2.00;;;1.13;;
12129;SDS011;6128;59.340;18.040;2023-09-07T10:00:41;1.15;;;1.02;;
12129;SDS011;6128;59.340;18.040;2023-09-07T10:03:10;2.28;;;1.02;;
12129;SDS011;6128;59.340;18.040;2023-09-07T10:05:44;1.42;;;0.73;;
12129;SDS011;6128;59.340;18.040;2023-09-07T10:08:12;1.98;;;0.90;;
12129;SDS011;6128;59.340;18.040;2023-09-07T10:10:40;1.42;;;0.90;;
12129;SDS011;6128;59.340;18.040;2023-09-07T10:13:08;3.70;;;1.10;;
12129;SDS011;6128;59.340;18.040;2023-09-07T10:15:36;2.53;;;0.90;;
12129;SDS011;6128;59.340;18.040;2023-09-07T10:18:08;1.35;;;1.00;;
12129;SDS011;6128;59.340;18.040;2023-09-07T10:20:49;1.10;;;1.00;;
12129;SDS011;6128;59.340;18.040;2023-09-07T10:23:17;1.70;;;0.80;;
12129;SDS011;6128;59.340;18.040;2023-09-07T10:25:48;2.42;;;1.10;;
12129;SDS011;6128;59.340;18.040;2023-09-07T10:28:22;1.38;;;0.90;;
12129;SDS011;6128;59.340;18.040;2023-09-07T10:31:00;2.00;;;1.05;;
12129;SDS011;6128;59.340;18.040;2023-09-07T10:33:31;1.20;;;0.80;;
12129;SDS011;6128;59.340;18.040;2023-09-07T10:35:58;1.50;;;1.15;;
12129;SDS011;6128;59.340;18.040;2023-09-07T10:38:26;1.95;;;1.20;;
12129;SDS011;6128;59.340;18.040;2023-09-07T10:40:57;3.40;;;1.67;;
12129;SDS011;6128;59.340;18.040;2023-09-07T10:43:25;2.13;;;1.00;;
12129;SDS011;6128;59.340;18.040;2023-09-07T10:45:53;2.75;;;1.10;;
12129;SDS011;6128;59.340;18.040;2023-09-07T10:48:21;2.05;;;1.30;;
12129;SDS011;6128;59.340;18.040;2023-09-07T10:50:49;1.92;;;1.25;;
12129;SDS011;6128;59.340;18.040;2023-09-07T10:53:24;2.35;;;1.33;;
12129;SDS011;6128;59.340;18.040;2023-09-07T10:55:52;1.95;;;1.20;;
12129;SDS011;6128;59.340;18.040;2023-09-07T10:58:28;5.70;;;1.05;;
12129;SDS011;6128;59.340;18.040;2023-09-07T11:00:58;1.38;;;0.90;;
12129;SDS011;6128;59.340;18.040;2023-09-07T11:03:26;2.70;;;1.10;;
12129;SDS011;6128;59.340;18.040;2023-09-07T11:05:55;1.42;;;1.10;;
12129;SDS011;6128;59.340;18.040;2023-09-07T11:08:25;1.17;;;1.00;;
12129;SDS011;6128;59.340;18.040;2023-09-07T11:10:55;1.63;;;1.02;;
12129;SDS011;6128;59.340;18.040;2023-09-07T11:13:23;1.63;;;1.10;;
12129;SDS011;6128;59.340;18.040;2023-09-07T11:15:53;3.28;;;1.10;;
12129;SDS011;6128;59.340;18.040;2023-09-07T11:18:21;1.58;;;1.08;;
12129;SDS011;6128;59.340;18.040;2023-09-07T11:20:49;1.80;;;1.30;;
12129;SDS011;6128;59.340;18.040;2023-09-07T11:23:18;1.75;;;0.95;;
12129;SDS011;6128;59.340;18.040;2023-09-07T11:25:46;1.92;;;0.88;;
12129;SDS011;6128;59.340;18.040;2023-09-07T11:28:15;1.80;;;0.80;;
12129;SDS011;6128;59.340;18.040;2023-09-07T11:30:49;3.22;;;0.90;;
12129;SDS011;6128;59.340;18.040;2023-09-07T11:33:17;2.67;;;1.00;;
12129;SDS011;6128;59.340;18.040;2023-09-07T11:35:44;1.85;;;1.20;;
12129;SDS011;6128;59.340;18.040;2023-09-07T11:38:12;3.28;;;1.17;;
12129;SDS011;6128;59.340;18.040;2023-09-07T11:40:42;1.20;;;0.90;;
12129;SDS011;6128;59.340;18.040;2023-09-07T11:43:09;1.55;;;1.00;;
12129;SDS011;6128;59.340;18.040;2023-09-07T11:45:37;2.38;;;1.02;;
12129;SDS011;6128;59.340;18.040;2023-09-07T11:48:05;2.75;;;1.00;;
12129;SDS011;6128;59.340;18.040;2023-09-07T11:50:34;1.75;;;0.80;;
12129;SDS011;6128;59.340;18.040;2023-09-07T11:53:02;2.83;;;0.90;;
12129;SDS011;6128;59.340;18.040;2023-09-07T11:55:29;2.33;;;0.63;;
12129;SDS011;6128;59.340;18.040;2023-09-07T11:57:57;2.15;;;0.70;;
12129;SDS011;6128;59.340;18.040;2023-09-07T12:00:24;2.33;;;0.95;;
12129;SDS011;6128;59.340;18.040;2023-09-07T12:02:51;1.38;;;0.60;;
12129;SDS011;6128;59.340;18.040;2023-09-07T12:05:19;0.93;;;0.57;;
12129;SDS011;6128;59.340;18.040;2023-09-07T12:07:46;2.15;;;0.60;;
12129;SDS011;6128;59.340;18.040;2023-09-07T12:10:13;2.05;;;0.70;;
12129;SDS011;6128;59.340;18.040;2023-09-07T12:12:40;1.33;;;0.70;;
12129;SDS011;6128;59.340;18.040;2023-09-07T12:15:10;1.52;;;0.50;;
12129;SDS011;6128;59.340;18.040;2023-09-07T12:17:37;1.25;;;0.70;;
12129;SDS011;6128;59.340;18.040;2023-09-07T12:20:05;1.60;;;0.68;;
12129;SDS011;6128;59.340;18.040;2023-09-07T12:22:35;3.67;;;1.75;;
12129;SDS011;6128;59.340;18.040;2023-09-07T12:25:03;1.67;;;0.65;;
12129;SDS011;6128;59.340;18.040;2023-09-07T12:27:31;1.17;;;0.70;;
12129;SDS011;6128;59.340;18.040;2023-09-07T12:29:59;1.95;;;1.10;;
12129;SDS011;6128;59.340;18.040;2023-09-07T12:32:32;1.25;;;0.90;;
12129;SDS011;6128;59.340;18.040;2023-09-07T12:34:59;2.10;;;0.70;;
12129;SDS011;6128;59.340;18.040;2023-09-07T12:37:26;1.85;;;0.70;;
12129;SDS011;6128;59.340;18.040;2023-09-07T12:39:53;1.23;;;0.70;;
12129;SDS011;6128;59.340;18.040;2023-09-07T12:42:21;1.13;;;0.68;;
12129;SDS011;6128;59.340;18.040;2023-09-07T12:44:49;1.77;;;0.77;;
12129;SDS011;6128;59.340;18.040;2023-09-07T12:47:16;2.72;;;0.63;;
12129;SDS011;6128;59.340;18.040;2023-09-07T12:49:45;2.95;;;0.90;;
12129;SDS011;6128;59.340;18.040;2023-09-07T12:52:13;1.40;;;0.70;;
12129;SDS011;6128;59.340;18.040;2023-09-07T12:54:40;1.98;;;0.80;;
12129;SDS011;6128;59.340;18.040;2023-09-07T12:57:08;2.45;;;0.77;;
12129;SDS011;6128;59.340;18.040;2023-09-07T12:59:35;1.65;;;0.80;;
12129;SDS011;6128;59.340;18.040;2023-09-07T13:02:02;3.50;;;0.90;;
12129;SDS011;6128;59.340;18.040;2023-09-07T13:04:29;1.55;;;0.95;;
12129;SDS011;6128;59.340;18.040;2023-09-07T13:06:58;1.65;;;0.73;;
12129;SDS011;6128;59.340;18.040;2023-09-07T13:09:26;2.25;;;1.00;;
12129;SDS011;6128;59.340;18.040;2023-09-07T13:11:53;5.63;;;0.80;;
12129;SDS011;6128;59.340;18.040;2023-09-07T13:14:20;1.65;;;1.10;;
12129;SDS011;6128;59.340;18.040;2023-09-07T13:16:47;1.38;;;0.57;;
12129;SDS011;6128;59.340;18.040;2023-09-07T13:19:15;1.83;;;0.70;;
12129;SDS011;6128;59.340;18.040;2023-09-07T13:21:43;1.33;;;0.80;;
12129;SDS011;6128;59.340;18.040;2023-09-07T13:24:11;3.70;;;0.90;;
12129;SDS011;6128;59.340;18.040;2023-09-07T13:26:39;2.10;;;0.57;;
12129;SDS011;6128;59.340;18.040;2023-09-07T13:29:06;1.92;;;0.70;;
12129;SDS011;6128;59.340;18.040;2023-09-07T13:31:33;1.95;;;0.70;;
12129;SDS011;6128;59.340;18.040;2023-09-07T13:34:00;3.03;;;0.82;;
12129;SDS011;6128;59.340;18.040;2023-09-07T13:36:28;2.15;;;0.70;;
12129;SDS011;6128;59.340;18.040;2023-09-07T13:38:55;1.75;;;0.98;;
12129;SDS011;6128;59.340;18.040;2023-09-07T13:41:23;1.02;;;0.77;;
12129;SDS011;6128;59.340;18.040;2023-09-07T13:43:51;1.70;;;0.60;;
12129;SDS011;6128;59.340;18.040;2023-09-07T13:46:19;2.45;;;1.15;;
12129;SDS011;6128;59.340;18.040;2023-09-07T13:48:46;1.98;;;0.90;;
12129;SDS011;6128;59.340;18.040;2023-09-07T13:51:13;2.17;;;0.80;;
12129;SDS011;6128;59.340;18.040;2023-09-07T13:53:40;2.25;;;0.93;;
12129;SDS011;6128;59.340;18.040;2023-09-07T13:56:07;2.63;;;1.00;;
12129;SDS011;6128;59.340;18.040;2023-09-07T13:58:36;2.55;;;1.00;;
12129;SDS011;6128;59.340;18.040;2023-09-07T14:01:03;2.08;;;0.88;;
12129;SDS011;6128;59.340;18.040;2023-09-07T14:03:29;1.33;;;0.90;;
12129;SDS011;6128;59.340;18.040;2023-09-07T14:05:56;1.75;;;0.60;;
12129;SDS011;6128;59.340;18.040;2023-09-07T14:08:24;1.60;;;0.70;;
12129;SDS011;6128;59.340;18.040;2023-09-07T14:10:51;1.70;;;0.88;;
12129;SDS011;6128;59.340;18.040;2023-09-07T14:13:18;2.33;;;0.88;;
12129;SDS011;6128;59.340;18.040;2023-09-07T14:15:49;1.38;;;0.60;;
12129;SDS011;6128;59.340;18.040;2023-09-07T14:18:17;1.20;;;0.70;;
12129;SDS011;6128;59.340;18.040;2023-09-07T14:20:44;1.35;;;0.80;;
12129;SDS011;6128;59.340;18.040;2023-09-07T14:23:11;1.77;;;0.88;;
12129;SDS011;6128;59.340;18.040;2023-09-07T14:25:38;2.08;;;0.70;;
12129;SDS011;6128;59.340;18.040;2023-09-07T14:28:07;3.03;;;1.02;;
12129;SDS011;6128;59.340;18.040;2023-09-07T14:30:34;1.88;;;0.73;;
12129;SDS011;6128;59.340;18.040;2023-09-07T14:33:03;3.72;;;0.82;;
12129;SDS011;6128;59.340;18.040;2023-09-07T14:35:30;3.53;;;0.90;;
12129;SDS011;6128;59.340;18.040;2023-09-07T14:37:57;1.73;;;0.60;;
12129;SDS011;6128;59.340;18.040;2023-09-07T14:40:25;1.02;;;0.70;;
12129;SDS011;6128;59.340;18.040;2023-09-07T14:42:53;3.22;;;0.60;;
12129;SDS011;6128;59.340;18.040;2023-09-07T14:45:22;2.38;;;0.70;;
12129;SDS011;6128;59.340;18.040;2023-09-07T14:47:50;2.22;;;0.70;;
12129;SDS011;6128;59.340;18.040;2023-09-07T14:50:19;1.23;;;0.57;;
12129;SDS011;6128;59.340;18.040;2023-09-07T14:52:46;3.83;;;0.70;;